Flight Track Log - Related Links

Times and Time Zones

All times are in EDT time to prevent confusion due to time zone crossing. See the N210PM flight status page for this flight to view local times or setup timezone preferences in your user account.

Time Position Orientation Groundspeed Altitude Reporting Facility
EDT Latitude Longitude Course Direction KTS MPH feet Rate Location/Type
Fri 05:33:16 PM 39.7833 -94.9000 347° North 151 174 1,900  Level Kansas City TRACON
Fri 05:33:46 PM 39.7969 -94.9042 347° North 145 167 2,300 2,000 Climbing Minneapolis Center
Fri 05:34:25 PM 39.8275 -94.8761 35° Northeast 166 191 4,200 2,970 Climbing Kansas City Center
Fri 05:35:27 PM 39.8747 -94.8342 34° Northeast 184 212 7,300 2,516 Climbing Kansas City Center
Fri 05:36:29 PM 39.9139 -94.8008 33° Northeast 177 204 9,400 2,177 Climbing Kansas City Center
Fri 05:37:31 PM 39.9656 -94.7561 34° Northeast 197 227 11,800 2,129 Climbing Kansas City Center
Fri 05:38:33 PM 40.0108 -94.7158 34° Northeast 204 235 13,800 1,935 Climbing Kansas City Center
Fri 05:39:35 PM 40.0658 -94.6692 33° Northeast 211 243 15,800 1,721 Climbing Kansas City Center
Fri 05:40:49 PM 40.1217 -94.6183 35° Northeast 216 249 17,700 1,588 Climbing Kansas City Center
Fri 05:41:51 PM 40.1842 -94.5675 32° Northeast 236 272 19,400 1,548 Climbing Kansas City Center
Fri 05:42:53 PM 40.2378 -94.5183 35° Northeast 243 280 20,900 774 Climbing Kansas City Center
Fri 05:43:55 PM 40.3106 -94.4558 33° Northeast 268 308 21,000 48 Climbing Kansas City Center
Fri 05:44:57 PM 40.3839 -94.3881 35° Northeast 312 359 21,000  Level Kansas City Center
Fri 05:45:59 PM 40.4611 -94.3225 33° Northeast 327 376 21,000  Level Minneapolis Center
Fri 05:47:02 PM 40.5389 -94.2533 34° Northeast 335 386 21,000  Level Minneapolis Center
Fri 05:48:04 PM 40.6181 -94.1833 34° Northeast 341 392 21,000  Level Minneapolis Center
Fri 05:49:06 PM 40.7122 -94.1000 34° Northeast 342 394 21,000  Level Minneapolis Center
Fri 05:50:08 PM 40.7908 -94.0314 33° Northeast 341 392 21,000  Level Minneapolis Center
Fri 05:51:10 PM 40.8675 -93.9611 35° Northeast 339 390 21,000  Level Minneapolis Center
Fri 05:52:12 PM 40.9458 -93.8917 34° Northeast 340 391 21,000  Level Minneapolis Center
Fri 05:53:14 PM 41.0228 -93.8233 34° Northeast 337 388 21,000  Level Minneapolis Center
Fri 05:54:16 PM 41.1147 -93.7400 34° Northeast 335 386 21,000  Level Minneapolis Center
Fri 05:55:19 PM 41.1925 -93.6706 34° Northeast 337 388 21,000  Level Minneapolis Center
Fri 05:57:26 PM 41.3461 -93.5297 35° Northeast 335 386 21,000  Level Chicago Center
Fri 05:58:28 PM 41.4386 -93.4453 34° Northeast 337 388 21,000  Level Chicago Center
Fri 05:59:30 PM 41.5153 -93.3742 35° Northeast 337 388 21,000  Level Chicago Center
Fri 06:00:32 PM 41.5919 -93.3053 34° Northeast 334 384 21,000 -179 Level Chicago Center
Fri 06:01:44 PM 41.6839 -93.2211 34° Northeast 336 387 20,600 -761 Descending Minneapolis Center
Fri 06:02:46 PM 41.7603 -93.1494 35° Northeast 337 388 19,300 -1,403 Descending Minneapolis Center
Fri 06:03:48 PM 41.8325 -93.0822 35° Northeast 326 375 17,700 -1,694 Descending Minneapolis Center
Fri 06:04:50 PM 41.9172 -93.0033 35° Northeast 315 362 15,800 -1,742 Descending Minneapolis Center
Fri 06:05:52 PM 41.9878 -92.9383 34° Northeast 309 356 14,100 -1,548 Descending Minneapolis Center
Fri 06:06:54 PM 42.0539 -92.8772 34° Northeast 297 342 12,600 -1,409 Descending Minneapolis Center
Fri 06:07:47 PM 42.1036 -92.8258 37° Northeast 287 330 11,400 -1,565 Descending Chicago Center
Fri 06:08:49 PM 42.1778 -92.7572 34° Northeast 274 315 9,600 -1,548 Descending Chicago Center
Fri 06:09:51 PM 42.2392 -92.6989 35° Northeast 271 312 8,200 -1,403 Descending Chicago Center
Fri 06:10:53 PM 42.2989 -92.6406 36° Northeast 269 310 6,700 -1,355 Descending Chicago Center
Fri 06:11:55 PM 42.3581 -92.5856 34° Northeast 266 306 5,400 -1,210 Descending Chicago Center
Fri 06:12:57 PM 42.4092 -92.5353 36° Northeast 248 285 4,200 -1,210 Descending Chicago Center
Fri 06:13:59 PM 42.4486 -92.4456 59° Northeast 238 274 2,900 -823 Descending Chicago Center
Fri 06:15:01 PM 42.4756 -92.3914 56° Northeast 202 232 2,500 -387 Descending Chicago Center
Fri 06:16:03 PM 42.5003 -92.3528 49° Northeast 159 183 2,100 -484 Descending Chicago Center
Fri 06:17:05 PM 42.5289 -92.3533 359° North 123 142 1,500 -432 Descending Chicago Center
Fri 06:18:08 PM 42.5503 -92.3786 319° Northwest 109 125 1,200 -286 Descending Chicago Center
Fri 06:20:00 PM 42.5500 -92.4000 20° North  Level FlightAware Approximate

Login

Don't have an account? Register now (free) for customized features, flight alerts, and more!